CAL114 VHHH-RCTP

Flight info

Callsign CAL114
Flight time 1h 6m
Altitude 35000
Route DALOL V631 ENVAR M750 EXTRA/N0471F290 M750 TONGA TONGA1A
Aircraft B77W/H-SDE1E2E3FGHIJ2J3J4J5M1RWXY/LB1D1

Departure

Time 2026-05-04 15:05
Airport Hong Kong International Airport (VHHH)

Arrival

Time 2026-05-04 16:11
Airport Taiwan Taoyuan International Airport (RCTP)
Time Latitude Longitude Altitude Speed Heading
2026-05-04 14:58 22.31041 113.91560 42 ft 16 kts 341°
2026-05-04 14:58 22.31151 113.91520 42 ft 15 kts 341°
2026-05-04 14:59 22.31257 113.91481 42 ft 16 kts 341°
2026-05-04 14:59 22.31320 113.91388 42 ft 17 kts 264°
2026-05-04 14:59 22.31238 113.91112 42 ft 21 kts 251°
2026-05-04 15:00 22.31187 113.90951 42 ft 23 kts 251°
2026-05-04 15:00 22.31130 113.90773 42 ft 26 kts 251°
2026-05-04 15:00 22.31067 113.90575 42 ft 28 kts 251°
2026-05-04 15:01 22.30927 113.90147 42 ft 30 kts 250°
2026-05-04 15:01 22.30877 113.89984 42 ft 14 kts 252°
2026-05-04 15:01 22.30908 113.89921 42 ft 10 kts 343°
2026-05-04 15:01 22.30960 113.89908 42 ft 0 kts 342°
2026-05-04 15:03 22.30962 113.89908 42 ft 1 kts 342°
2026-05-04 15:03 22.30978 113.89902 42 ft 4 kts 342°
2026-05-04 15:03 22.31019 113.89888 42 ft 8 kts 342°
2026-05-04 15:03 22.31089 113.89879 42 ft 12 kts 15°
2026-05-04 15:04 22.31139 113.89940 42 ft 0 kts 71°
2026-05-04 15:04 22.31155 113.89990 42 ft 29 kts 71°
2026-05-04 15:04 22.31318 113.90515 42 ft 115 kts 72°
2026-05-04 15:04 22.31680 113.91585 78 ft 185 kts 71°
2026-05-04 15:05 22.32141 113.93024 583 ft 216 kts 73°
2026-05-04 15:05 22.32610 113.94536 1963 ft 216 kts 72°
2026-05-04 15:05 22.33100 113.96039 3200 ft 224 kts 72°
2026-05-04 15:05 22.33512 113.97714 4116 ft 244 kts 81°
2026-05-04 15:06 22.33809 113.99561 5211 ft 259 kts 81°
2026-05-04 15:06 22.34121 114.01519 6349 ft 273 kts 81°
2026-05-04 15:06 22.34398 114.03547 7533 ft 281 kts 88°
2026-05-04 15:07 22.33016 114.07403 9367 ft 298 kts 145°
2026-05-04 15:07 22.31239 114.08530 10479 ft 299 kts 159°
2026-05-04 15:07 22.29448 114.09658 11641 ft 307 kts 150°
2026-05-04 15:07 22.27667 114.10992 12656 ft 319 kts 149°
2026-05-04 15:08 22.25814 114.12399 13457 ft 337 kts 149°
2026-05-04 15:08 22.23835 114.13905 14298 ft 353 kts 149°
2026-05-04 15:08 22.21801 114.15453 15158 ft 368 kts 148°
2026-05-04 15:08 22.19681 114.17069 15992 ft 383 kts 148°
2026-05-04 15:09 22.17452 114.18768 16795 ft 399 kts 148°
2026-05-04 15:09 22.15146 114.20527 17584 ft 413 kts 148°
2026-05-04 15:09 22.12776 114.22336 18328 ft 429 kts 148°
2026-05-04 15:10 22.07798 114.26141 20159 ft 446 kts 148°
2026-05-04 15:10 22.05286 114.28103 21195 ft 450 kts 147°
2026-05-04 15:10 22.00129 114.32175 22743 ft 468 kts 147°
2026-05-04 15:11 21.97450 114.34290 23624 ft 472 kts 148°
2026-05-04 15:11 21.94803 114.36378 24565 ft 475 kts 148°
2026-05-04 15:11 21.92136 114.38480 25360 ft 479 kts 148°
2026-05-04 15:11 21.89447 114.40683 26000 ft 488 kts 143°
2026-05-04 15:12 21.87019 114.43289 26601 ft 501 kts 135°
2026-05-04 15:12 21.84928 114.46348 27255 ft 510 kts 125°
2026-05-04 15:12 21.83285 114.49738 27952 ft 518 kts 116°
2026-05-04 15:12 21.82108 114.53426 28516 ft 526 kts 108°
2026-05-04 15:13 21.81167 114.57279 28936 ft 534 kts 107°
2026-05-04 15:13 21.80229 114.61163 29382 ft 540 kts 107°
2026-05-04 15:13 21.79268 114.65075 29878 ft 545 kts 108°
2026-05-04 15:13 21.78289 114.69003 30328 ft 549 kts 108°
2026-05-04 15:14 21.77292 114.72959 30798 ft 553 kts 108°
2026-05-04 15:14 21.76279 114.76945 31397 ft 553 kts 108°
2026-05-04 15:14 21.75260 114.80947 32083 ft 551 kts 107°
2026-05-04 15:14 21.74551 114.84991 32753 ft 552 kts 98°
2026-05-04 15:15 21.74337 114.89074 33399 ft 552 kts 91°
2026-05-04 15:15 21.74327 114.93208 34092 ft 550 kts 90°
2026-05-04 15:15 21.74334 114.97280 34823 ft 546 kts 90°
2026-05-04 15:16 21.74343 115.05567 35063 ft 563 kts 90°
2026-05-04 15:16 21.74343 115.09830 35068 ft 570 kts 90°
2026-05-04 15:17 21.74334 115.22755 35065 ft 574 kts 90°
2026-05-04 15:17 21.74311 115.35513 35067 ft 566 kts 90°
2026-05-04 15:18 21.74290 115.43965 35073 ft 566 kts 90°
2026-05-04 15:19 21.74248 115.56612 35073 ft 566 kts 90°
2026-05-04 15:19 21.74201 115.69351 35061 ft 566 kts 91°
2026-05-04 15:20 21.74165 115.77782 35065 ft 566 kts 91°
2026-05-04 15:20 21.74124 115.86241 35064 ft 565 kts 91°
2026-05-04 15:21 21.74080 115.94664 35066 ft 566 kts 91°
2026-05-04 15:22 21.74005 116.07362 35073 ft 566 kts 91°
2026-05-04 15:22 21.73919 116.20084 35073 ft 567 kts 91°
2026-05-04 15:23 21.73857 116.28536 35071 ft 565 kts 91°
2026-05-04 15:23 21.73791 116.36988 35073 ft 567 kts 91°
2026-05-04 15:24 21.73645 116.53902 35077 ft 567 kts 91°
2026-05-04 15:25 21.73566 116.62316 35075 ft 566 kts 91°
2026-05-04 15:26 21.73544 116.74989 35061 ft 567 kts 86°
2026-05-04 15:26 21.76518 116.87199 35070 ft 566 kts 68°
2026-05-04 15:27 21.80833 116.99063 35066 ft 565 kts 67°
2026-05-04 15:28 21.85101 117.10852 35067 ft 566 kts 67°
2026-05-04 15:29 21.89377 117.22710 35070 ft 566 kts 68°
2026-05-04 15:30 21.99451 117.50301 35072 ft 567 kts 60°
2026-05-04 15:31 22.05506 117.61192 35073 ft 566 kts 56°
2026-05-04 15:32 22.15796 117.79318 35059 ft 566 kts 56°
2026-05-04 15:34 22.26027 117.97420 35057 ft 565 kts 56°
2026-05-04 15:34 22.32246 118.08216 35063 ft 565 kts 55°
2026-05-04 15:35 22.38538 118.18986 35062 ft 566 kts 55°
2026-05-04 15:36 22.44758 118.29846 35061 ft 567 kts 56°
2026-05-04 15:36 22.48857 118.37094 35059 ft 567 kts 56°
2026-05-04 15:37 22.52986 118.44402 35059 ft 567 kts 56°
2026-05-04 15:37 22.57087 118.51666 35064 ft 568 kts 56°
2026-05-04 15:38 22.61234 118.58952 35063 ft 567 kts 56°
2026-05-04 15:38 22.65385 118.66239 35067 ft 568 kts 56°
2026-05-04 15:39 22.69516 118.73504 35053 ft 568 kts 56°
2026-05-04 15:40 22.75721 118.84436 35046 ft 567 kts 56°
2026-05-04 15:40 22.79862 118.91745 35049 ft 567 kts 56°
2026-05-04 15:41 22.83983 118.99028 35053 ft 568 kts 56°
2026-05-04 15:41 22.88093 119.06304 35055 ft 567 kts 56°
2026-05-04 15:42 22.92234 119.13644 35053 ft 568 kts 56°
2026-05-04 15:42 22.96374 119.20993 35052 ft 569 kts 56°
2026-05-04 15:43 23.00471 119.28278 35051 ft 568 kts 56°
2026-05-04 15:43 23.04591 119.35613 35049 ft 569 kts 56°
2026-05-04 15:44 23.08698 119.42935 35054 ft 569 kts 56°
2026-05-04 15:44 23.12845 119.50340 35045 ft 569 kts 56°
2026-05-04 15:45 23.17445 119.57290 35038 ft 565 kts 43°
2026-05-04 15:45 23.23403 119.62659 35038 ft 554 kts 26°
2026-05-04 15:46 23.30019 119.66873 35029 ft 551 kts 25°
2026-05-04 15:46 23.36730 119.71081 35031 ft 552 kts 25°
2026-05-04 15:47 23.43388 119.75269 35038 ft 552 kts 25°
2026-05-04 15:47 23.50063 119.79516 35040 ft 554 kts 27°
2026-05-04 15:48 23.56519 119.83971 35039 ft 552 kts 27°
2026-05-04 15:48 23.66368 119.90788 35031 ft 554 kts 27°
2026-05-04 15:49 23.72804 119.95245 34526 ft 540 kts 27°
2026-05-04 15:49 23.76001 119.97455 33470 ft 547 kts 27°
2026-05-04 15:49 23.79218 119.99676 32159 ft 558 kts 27°
2026-05-04 15:50 23.82491 120.01938 31273 ft 558 kts 27°
2026-05-04 15:50 23.85769 120.04210 30861 ft 550 kts 27°
2026-05-04 15:50 23.88941 120.06411 30234 ft 538 kts 28°
2026-05-04 15:50 23.92077 120.08586 29375 ft 530 kts 28°
2026-05-04 15:51 23.95199 120.10751 28514 ft 523 kts 28°
2026-05-04 15:51 23.98232 120.12856 28007 ft 508 kts 28°
2026-05-04 15:51 24.01154 120.14886 27451 ft 496 kts 28°
2026-05-04 15:51 24.04044 120.16894 26876 ft 484 kts 28°
2026-05-04 15:52 24.06866 120.18855 26309 ft 473 kts 28°
2026-05-04 15:52 24.09621 120.20769 25655 ft 465 kts 28°
2026-05-04 15:52 24.12344 120.22662 24927 ft 460 kts 28°
2026-05-04 15:52 24.15016 120.24519 24141 ft 455 kts 28°
2026-05-04 15:53 24.17666 120.26363 23482 ft 448 kts 28°
2026-05-04 15:53 24.20286 120.28189 23084 ft 433 kts 28°
2026-05-04 15:53 24.22802 120.29943 22537 ft 425 kts 27°
2026-05-04 15:53 24.25286 120.31673 21905 ft 420 kts 27°
2026-05-04 15:54 24.27726 120.33374 21211 ft 417 kts 27°
2026-05-04 15:54 24.30189 120.35091 20468 ft 415 kts 27°
2026-05-04 15:54 24.32635 120.36797 19797 ft 411 kts 28°
2026-05-04 15:54 24.35043 120.38479 19186 ft 406 kts 28°
2026-05-04 15:55 24.37438 120.40152 18536 ft 401 kts 28°
2026-05-04 15:55 24.39857 120.41842 17826 ft 399 kts 28°
2026-05-04 15:55 24.42170 120.43459 17200 ft 394 kts 28°
2026-05-04 15:55 24.44465 120.45064 16580 ft 390 kts 28°
2026-05-04 15:56 24.46763 120.46673 15952 ft 386 kts 28°
2026-05-04 15:56 24.48997 120.48238 15341 ft 382 kts 28°
2026-05-04 15:56 24.51218 120.49794 14794 ft 376 kts 28°
2026-05-04 15:56 24.53399 120.51324 14399 ft 365 kts 28°
2026-05-04 15:57 24.55528 120.52817 13879 ft 360 kts 28°
2026-05-04 15:57 24.57630 120.54289 13245 ft 358 kts 28°
2026-05-04 15:57 24.59720 120.55756 12665 ft 355 kts 28°
2026-05-04 15:57 24.61786 120.57205 12072 ft 351 kts 29°
2026-05-04 15:58 24.63837 120.58645 11546 ft 346 kts 29°
2026-05-04 15:58 24.65857 120.60065 10965 ft 343 kts 28°
2026-05-04 15:58 24.67811 120.61567 10413 ft 341 kts 37°
2026-05-04 15:58 24.69566 120.63245 10131 ft 329 kts 39°
2026-05-04 15:59 24.71245 120.64903 9677 ft 324 kts 39°
2026-05-04 15:59 24.72922 120.66559 9136 ft 321 kts 40°
2026-05-04 15:59 24.74580 120.68192 8584 ft 319 kts 40°
2026-05-04 15:59 24.76227 120.69812 8039 ft 316 kts 40°
2026-05-04 16:00 24.77828 120.71387 7840 ft 300 kts 40°
2026-05-04 16:00 24.79353 120.72890 7658 ft 287 kts 40°
2026-05-04 16:00 24.80829 120.74340 7237 ft 283 kts 40°
2026-05-04 16:00 24.82304 120.75791 6745 ft 283 kts 40°
2026-05-04 16:01 24.83770 120.77235 6322 ft 279 kts 41°
2026-05-04 16:01 24.85213 120.78657 6053 ft 275 kts 40°
2026-05-04 16:01 24.86648 120.80070 6037 ft 273 kts 41°
2026-05-04 16:01 24.88049 120.81451 6009 ft 261 kts 41°
2026-05-04 16:02 24.89388 120.82773 6006 ft 256 kts 41°
2026-05-04 16:02 24.90693 120.84090 5991 ft 256 kts 48°
2026-05-04 16:02 24.91744 120.87617 5765 ft 242 kts 92°
2026-05-04 16:03 24.91698 120.89455 5483 ft 237 kts 94°
2026-05-04 16:03 24.91614 120.91241 5181 ft 229 kts 95°
2026-05-04 16:03 24.91528 120.92965 4922 ft 221 kts 95°
2026-05-04 16:03 24.91444 120.94637 4689 ft 218 kts 95°
2026-05-04 16:04 24.91361 120.96281 4419 ft 216 kts 95°
2026-05-04 16:04 24.91196 120.99537 4197 ft 211 kts 95°
2026-05-04 16:04 24.91114 121.01169 4114 ft 208 kts 94°
2026-05-04 16:05 24.91133 121.02697 4004 ft 196 kts 76°
2026-05-04 16:05 24.91722 121.04022 4014 ft 192 kts 58°
2026-05-04 16:05 24.93302 121.06297 3900 ft 179 kts 50°
2026-05-04 16:06 24.94103 121.07300 3681 ft 172 kts 49°
2026-05-04 16:06 24.96171 121.09875 3099 ft 164 kts 50°
2026-05-04 16:07 24.97163 121.11121 2809 ft 158 kts 51°
2026-05-04 16:07 24.99266 121.13769 2189 ft 147 kts 52°
2026-05-04 16:08 24.99930 121.14606 1995 ft 144 kts 52°
2026-05-04 16:08 25.01875 121.17057 1410 ft 139 kts 54°
2026-05-04 16:09 25.03165 121.18686 1027 ft 140 kts 53°
2026-05-04 16:09 25.04446 121.20297 647 ft 140 kts 52°
2026-05-04 16:10 25.05759 121.21928 257 ft 143 kts 51°
2026-05-04 16:11 25.07313 121.23906 122 ft 50 kts 47°
2026-05-04 16:11 25.07454 121.24075 122 ft 24 kts 42°
2026-05-04 16:12 25.07730 121.24239 122 ft 0 kts 20°
2026-05-04 16:13 25.07747 121.24246 122 ft 5 kts 20°
2026-05-04 16:13 25.07870 121.24259 122 ft 7 kts 339°
2026-05-04 16:14 25.07954 121.24185 122 ft 7 kts 313°
2026-05-04 16:14 25.08009 121.24094 122 ft 7 kts 307°
2026-05-04 16:15 25.08062 121.24041 122 ft 0 kts 318°
2026-05-04 16:16 25.08065 121.24038 122 ft 0 kts 318°